sensor_id;sensor_type;location;lat;lon;timestamp;P1;durP1;ratioP1;P2;durP2;ratioP2
51724;SDS011;37801;53.224;6.552;2022-08-11T00:01:04;7.10;;;3.92;;
51724;SDS011;37801;53.224;6.552;2022-08-11T00:03:30;5.03;;;3.50;;
51724;SDS011;37801;53.224;6.552;2022-08-11T00:05:58;6.95;;;4.93;;
51724;SDS011;37801;53.224;6.552;2022-08-11T00:08:27;7.57;;;4.20;;
51724;SDS011;37801;53.224;6.552;2022-08-11T00:10:55;6.35;;;4.10;;
51724;SDS011;37801;53.224;6.552;2022-08-11T00:13:22;5.80;;;4.25;;
51724;SDS011;37801;53.224;6.552;2022-08-11T00:15:56;7.75;;;4.88;;
51724;SDS011;37801;53.224;6.552;2022-08-11T00:18:22;6.18;;;4.95;;
51724;SDS011;37801;53.224;6.552;2022-08-11T00:20:48;7.40;;;4.60;;
51724;SDS011;37801;53.224;6.552;2022-08-11T00:23:16;6.40;;;4.13;;
51724;SDS011;37801;53.224;6.552;2022-08-11T00:25:43;8.13;;;4.75;;
51724;SDS011;37801;53.224;6.552;2022-08-11T00:30:51;6.25;;;3.88;;
51724;SDS011;37801;53.224;6.552;2022-08-11T00:33:19;6.38;;;4.05;;
51724;SDS011;37801;53.224;6.552;2022-08-11T00:35:47;6.80;;;4.45;;
51724;SDS011;37801;53.224;6.552;2022-08-11T00:38:14;6.55;;;4.10;;
51724;SDS011;37801;53.224;6.552;2022-08-11T00:40:43;6.55;;;4.28;;
51724;SDS011;37801;53.224;6.552;2022-08-11T00:45:45;5.68;;;4.13;;
51724;SDS011;37801;53.224;6.552;2022-08-11T00:50:56;6.22;;;4.13;;
51724;SDS011;37801;53.224;6.552;2022-08-11T01:01:09;6.38;;;4.65;;
51724;SDS011;37801;53.224;6.552;2022-08-11T01:22:52;6.20;;;4.55;;
51724;SDS011;37801;53.224;6.552;2022-08-11T01:31:58;7.93;;;5.32;;
51724;SDS011;37801;53.224;6.552;2022-08-11T01:47:26;6.70;;;5.18;;
51724;SDS011;37801;53.224;6.552;2022-08-11T01:52:50;6.28;;;5.00;;
51724;SDS011;37801;53.224;6.552;2022-08-11T02:00:51;6.78;;;5.35;;
51724;SDS011;37801;53.224;6.552;2022-08-11T02:03:23;6.80;;;4.70;;
51724;SDS011;37801;53.224;6.552;2022-08-11T02:06:03;7.93;;;5.25;;
51724;SDS011;37801;53.224;6.552;2022-08-11T02:11:42;6.40;;;4.57;;
51724;SDS011;37801;53.224;6.552;2022-08-11T02:17:06;8.55;;;4.90;;
51724;SDS011;37801;53.224;6.552;2022-08-11T02:25:43;5.28;;;4.38;;
51724;SDS011;37801;53.224;6.552;2022-08-11T02:31:09;6.72;;;4.47;;
51724;SDS011;37801;53.224;6.552;2022-08-11T02:33:57;5.93;;;4.57;;
51724;SDS011;37801;53.224;6.552;2022-08-11T02:36:37;8.40;;;4.75;;
51724;SDS011;37801;53.224;6.552;2022-08-11T02:39:07;7.28;;;4.75;;
51724;SDS011;37801;53.224;6.552;2022-08-11T02:47:07;6.32;;;5.00;;
51724;SDS011;37801;53.224;6.552;2022-08-11T02:49:46;8.48;;;5.13;;
51724;SDS011;37801;53.224;6.552;2022-08-11T02:52:42;6.18;;;5.13;;
51724;SDS011;37801;53.224;6.552;2022-08-11T02:55:15;7.90;;;5.78;;
51724;SDS011;37801;53.224;6.552;2022-08-11T03:00:31;9.48;;;5.65;;
51724;SDS011;37801;53.224;6.552;2022-08-11T03:08:17;6.45;;;5.15;;
51724;SDS011;37801;53.224;6.552;2022-08-11T03:10:48;8.15;;;5.30;;
51724;SDS011;37801;53.224;6.552;2022-08-11T03:13:37;8.93;;;5.47;;
51724;SDS011;37801;53.224;6.552;2022-08-11T03:27:06;8.10;;;6.32;;
51724;SDS011;37801;53.224;6.552;2022-08-11T03:32:34;8.85;;;6.18;;
51724;SDS011;37801;53.224;6.552;2022-08-11T03:35:02;8.05;;;6.68;;
51724;SDS011;37801;53.224;6.552;2022-08-11T03:38:04;7.88;;;5.90;;
51724;SDS011;37801;53.224;6.552;2022-08-11T03:45:43;10.82;;;7.10;;
51724;SDS011;37801;53.224;6.552;2022-08-11T04:00:49;8.60;;;6.70;;
51724;SDS011;37801;53.224;6.552;2022-08-11T04:24:44;8.50;;;6.43;;
51724;SDS011;37801;53.224;6.552;2022-08-11T04:49:07;9.07;;;6.45;;
51724;SDS011;37801;53.224;6.552;2022-08-11T05:00:54;9.23;;;5.40;;
51724;SDS011;37801;53.224;6.552;2022-08-11T05:03:42;8.52;;;5.85;;
51724;SDS011;37801;53.224;6.552;2022-08-11T05:11:42;6.90;;;5.72;;
51724;SDS011;37801;53.224;6.552;2022-08-11T05:14:22;6.57;;;5.22;;
51724;SDS011;37801;53.224;6.552;2022-08-11T05:17:12;7.30;;;5.45;;
51724;SDS011;37801;53.224;6.552;2022-08-11T05:19:58;7.03;;;5.32;;
51724;SDS011;37801;53.224;6.552;2022-08-11T05:22:49;8.63;;;5.65;;
51724;SDS011;37801;53.224;6.552;2022-08-11T05:25:34;7.20;;;5.40;;
51724;SDS011;37801;53.224;6.552;2022-08-11T05:28:32;8.65;;;5.68;;
51724;SDS011;37801;53.224;6.552;2022-08-11T05:31:21;7.10;;;5.10;;
51724;SDS011;37801;53.224;6.552;2022-08-11T05:34:09;7.15;;;5.43;;
51724;SDS011;37801;53.224;6.552;2022-08-11T05:40:07;6.07;;;4.72;;
51724;SDS011;37801;53.224;6.552;2022-08-11T05:43:02;7.38;;;4.95;;
51724;SDS011;37801;53.224;6.552;2022-08-11T05:45:58;6.78;;;4.88;;
51724;SDS011;37801;53.224;6.552;2022-08-11T05:48:43;7.85;;;4.95;;
51724;SDS011;37801;53.224;6.552;2022-08-11T05:51:41;7.10;;;4.65;;
51724;SDS011;37801;53.224;6.552;2022-08-11T05:54:27;7.57;;;5.05;;
51724;SDS011;37801;53.224;6.552;2022-08-11T05:57:18;8.10;;;5.28;;
51724;SDS011;37801;53.224;6.552;2022-08-11T05:59:45;7.95;;;5.07;;
51724;SDS011;37801;53.224;6.552;2022-08-11T06:02:12;5.90;;;4.82;;
51724;SDS011;37801;53.224;6.552;2022-08-11T06:04:38;8.90;;;4.85;;
51724;SDS011;37801;53.224;6.552;2022-08-11T06:07:06;5.60;;;4.47;;
51724;SDS011;37801;53.224;6.552;2022-08-11T06:12:06;8.95;;;5.32;;
51724;SDS011;37801;53.224;6.552;2022-08-11T06:14:33;6.28;;;5.05;;
51724;SDS011;37801;53.224;6.552;2022-08-11T06:17:00;7.63;;;6.07;;
51724;SDS011;37801;53.224;6.552;2022-08-11T06:19:35;7.35;;;5.93;;
51724;SDS011;37801;53.224;6.552;2022-08-11T06:22:03;7.18;;;5.40;;
51724;SDS011;37801;53.224;6.552;2022-08-11T06:24:33;8.40;;;5.20;;
51724;SDS011;37801;53.224;6.552;2022-08-11T06:27:00;10.98;;;5.03;;
51724;SDS011;37801;53.224;6.552;2022-08-11T06:29:28;5.75;;;4.90;;
51724;SDS011;37801;53.224;6.552;2022-08-11T06:31:56;5.65;;;4.45;;
51724;SDS011;37801;53.224;6.552;2022-08-11T06:34:27;7.30;;;4.35;;
51724;SDS011;37801;53.224;6.552;2022-08-11T06:37:15;7.03;;;4.25;;
51724;SDS011;37801;53.224;6.552;2022-08-11T06:39:46;7.60;;;4.78;;
51724;SDS011;37801;53.224;6.552;2022-08-11T06:42:15;6.25;;;4.40;;
51724;SDS011;37801;53.224;6.552;2022-08-11T06:47:32;5.63;;;4.05;;
51724;SDS011;37801;53.224;6.552;2022-08-11T06:49:59;7.07;;;4.30;;
51724;SDS011;37801;53.224;6.552;2022-08-11T06:52:44;7.38;;;4.20;;
51724;SDS011;37801;53.224;6.552;2022-08-11T06:55:21;6.03;;;4.32;;
51724;SDS011;37801;53.224;6.552;2022-08-11T06:58:15;4.93;;;4.05;;
51724;SDS011;37801;53.224;6.552;2022-08-11T07:01:06;5.47;;;4.20;;
51724;SDS011;37801;53.224;6.552;2022-08-11T07:03:36;5.47;;;4.18;;
51724;SDS011;37801;53.224;6.552;2022-08-11T07:14:40;6.25;;;4.03;;
51724;SDS011;37801;53.224;6.552;2022-08-11T07:17:27;5.72;;;3.63;;
51724;SDS011;37801;53.224;6.552;2022-08-11T07:19:55;5.68;;;3.67;;
51724;SDS011;37801;53.224;6.552;2022-08-11T07:22:42;4.30;;;3.25;;
51724;SDS011;37801;53.224;6.552;2022-08-11T07:25:34;4.80;;;3.60;;
51724;SDS011;37801;53.224;6.552;2022-08-11T07:28:22;5.28;;;3.33;;
51724;SDS011;37801;53.224;6.552;2022-08-11T07:31:12;5.13;;;3.42;;
51724;SDS011;37801;53.224;6.552;2022-08-11T07:33:46;6.78;;;3.60;;
51724;SDS011;37801;53.224;6.552;2022-08-11T07:36:14;4.70;;;3.42;;
51724;SDS011;37801;53.224;6.552;2022-08-11T07:38:41;6.22;;;3.60;;
51724;SDS011;37801;53.224;6.552;2022-08-11T07:41:12;5.50;;;3.65;;
51724;SDS011;37801;53.224;6.552;2022-08-11T07:43:39;6.60;;;3.40;;
51724;SDS011;37801;53.224;6.552;2022-08-11T07:46:06;6.63;;;3.65;;
51724;SDS011;37801;53.224;6.552;2022-08-11T07:48:51;5.18;;;3.58;;
51724;SDS011;37801;53.224;6.552;2022-08-11T07:51:37;4.80;;;3.00;;
51724;SDS011;37801;53.224;6.552;2022-08-11T07:54:23;4.88;;;3.10;;
51724;SDS011;37801;53.224;6.552;2022-08-11T07:56:49;6.20;;;3.10;;
51724;SDS011;37801;53.224;6.552;2022-08-11T07:59:16;4.95;;;2.83;;
51724;SDS011;37801;53.224;6.552;2022-08-11T08:02:01;5.25;;;2.78;;
51724;SDS011;37801;53.224;6.552;2022-08-11T08:04:46;5.85;;;2.60;;
51724;SDS011;37801;53.224;6.552;2022-08-11T08:07:32;4.35;;;2.67;;
51724;SDS011;37801;53.224;6.552;2022-08-11T08:10:18;4.30;;;2.80;;
51724;SDS011;37801;53.224;6.552;2022-08-11T08:13:03;3.78;;;2.25;;
51724;SDS011;37801;53.224;6.552;2022-08-11T08:15:50;4.15;;;2.35;;
51724;SDS011;37801;53.224;6.552;2022-08-11T08:18:35;3.50;;;2.10;;
51724;SDS011;37801;53.224;6.552;2022-08-11T08:21:03;4.10;;;2.47;;
51724;SDS011;37801;53.224;6.552;2022-08-11T08:23:41;4.47;;;2.63;;
51724;SDS011;37801;53.224;6.552;2022-08-11T08:26:08;4.35;;;1.80;;
51724;SDS011;37801;53.224;6.552;2022-08-11T08:28:54;4.75;;;2.05;;
51724;SDS011;37801;53.224;6.552;2022-08-11T08:31:41;3.33;;;1.98;;
51724;SDS011;37801;53.224;6.552;2022-08-11T08:34:07;6.00;;;2.40;;
51724;SDS011;37801;53.224;6.552;2022-08-11T08:36:34;3.63;;;2.00;;
51724;SDS011;37801;53.224;6.552;2022-08-11T08:39:00;3.40;;;2.10;;
51724;SDS011;37801;53.224;6.552;2022-08-11T08:41:27;3.40;;;1.80;;
51724;SDS011;37801;53.224;6.552;2022-08-11T08:43:54;4.93;;;1.88;;
51724;SDS011;37801;53.224;6.552;2022-08-11T08:46:24;2.72;;;1.70;;
51724;SDS011;37801;53.224;6.552;2022-08-11T08:48:52;3.78;;;1.70;;
51724;SDS011;37801;53.224;6.552;2022-08-11T08:51:18;4.72;;;1.80;;
51724;SDS011;37801;53.224;6.552;2022-08-11T08:54:17;3.22;;;1.70;;
51724;SDS011;37801;53.224;6.552;2022-08-11T08:56:45;2.83;;;1.48;;
51724;SDS011;37801;53.224;6.552;2022-08-11T08:59:12;2.60;;;1.58;;
51724;SDS011;37801;53.224;6.552;2022-08-11T09:01:45;5.05;;;1.88;;
51724;SDS011;37801;53.224;6.552;2022-08-11T09:04:12;5.55;;;1.63;;
51724;SDS011;37801;53.224;6.552;2022-08-11T09:06:40;4.45;;;1.70;;
51724;SDS011;37801;53.224;6.552;2022-08-11T09:09:09;4.32;;;1.88;;
51724;SDS011;37801;53.224;6.552;2022-08-11T09:11:36;6.65;;;1.70;;
51724;SDS011;37801;53.224;6.552;2022-08-11T09:14:17;2.35;;;1.50;;
51724;SDS011;37801;53.224;6.552;2022-08-11T09:16:45;2.53;;;1.30;;
51724;SDS011;37801;53.224;6.552;2022-08-11T09:19:12;3.80;;;2.60;;
51724;SDS011;37801;53.224;6.552;2022-08-11T09:21:45;3.88;;;2.90;;
51724;SDS011;37801;53.224;6.552;2022-08-11T09:24:32;3.40;;;2.22;;
51724;SDS011;37801;53.224;6.552;2022-08-11T09:27:18;2.95;;;1.92;;
51724;SDS011;37801;53.224;6.552;2022-08-11T09:29:45;3.00;;;1.20;;
51724;SDS011;37801;53.224;6.552;2022-08-11T09:32:11;2.83;;;1.35;;
51724;SDS011;37801;53.224;6.552;2022-08-11T09:34:39;2.70;;;1.48;;
51724;SDS011;37801;53.224;6.552;2022-08-11T09:37:05;1.85;;;1.10;;
51724;SDS011;37801;53.224;6.552;2022-08-11T09:39:52;3.30;;;1.33;;
51724;SDS011;37801;53.224;6.552;2022-08-11T09:42:37;5.38;;;1.30;;
51724;SDS011;37801;53.224;6.552;2022-08-11T09:45:22;4.47;;;1.35;;
51724;SDS011;37801;53.224;6.552;2022-08-11T09:47:49;3.78;;;1.13;;
51724;SDS011;37801;53.224;6.552;2022-08-11T09:50:15;1.52;;;1.00;;
51724;SDS011;37801;53.224;6.552;2022-08-11T09:52:43;2.97;;;1.20;;
51724;SDS011;37801;53.224;6.552;2022-08-11T09:55:10;2.30;;;1.08;;
51724;SDS011;37801;53.224;6.552;2022-08-11T09:57:39;2.53;;;1.20;;
51724;SDS011;37801;53.224;6.552;2022-08-11T10:00:28;4.18;;;1.35;;
51724;SDS011;37801;53.224;6.552;2022-08-11T10:02:54;3.08;;;1.40;;
51724;SDS011;37801;53.224;6.552;2022-08-11T10:05:21;2.10;;;1.20;;
51724;SDS011;37801;53.224;6.552;2022-08-11T10:08:07;2.08;;;1.30;;
51724;SDS011;37801;53.224;6.552;2022-08-11T10:10:35;3.08;;;1.45;;
51724;SDS011;37801;53.224;6.552;2022-08-11T10:13:04;2.92;;;1.30;;
51724;SDS011;37801;53.224;6.552;2022-08-11T10:15:31;1.75;;;1.10;;
51724;SDS011;37801;53.224;6.552;2022-08-11T10:17:59;5.57;;;1.88;;
51724;SDS011;37801;53.224;6.552;2022-08-11T10:20:46;4.28;;;1.27;;
51724;SDS011;37801;53.224;6.552;2022-08-11T10:23:16;2.33;;;1.10;;
51724;SDS011;37801;53.224;6.552;2022-08-11T10:26:01;3.17;;;0.90;;
51724;SDS011;37801;53.224;6.552;2022-08-11T10:28:46;3.78;;;1.15;;
51724;SDS011;37801;53.224;6.552;2022-08-11T10:31:13;2.05;;;1.15;;
51724;SDS011;37801;53.224;6.552;2022-08-11T10:33:58;2.30;;;0.95;;
51724;SDS011;37801;53.224;6.552;2022-08-11T10:36:37;3.60;;;1.20;;
51724;SDS011;37801;53.224;6.552;2022-08-11T10:39:27;3.58;;;1.30;;
51724;SDS011;37801;53.224;6.552;2022-08-11T10:41:53;4.25;;;1.60;;
51724;SDS011;37801;53.224;6.552;2022-08-11T10:44:40;2.20;;;1.08;;
51724;SDS011;37801;53.224;6.552;2022-08-11T10:47:06;2.95;;;1.13;;
51724;SDS011;37801;53.224;6.552;2022-08-11T10:49:53;3.53;;;1.40;;
51724;SDS011;37801;53.224;6.552;2022-08-11T10:52:39;2.90;;;1.30;;
51724;SDS011;37801;53.224;6.552;2022-08-11T10:55:25;2.22;;;1.10;;
51724;SDS011;37801;53.224;6.552;2022-08-11T10:58:10;3.05;;;1.23;;
51724;SDS011;37801;53.224;6.552;2022-08-11T11:00:55;3.75;;;1.23;;
51724;SDS011;37801;53.224;6.552;2022-08-11T11:03:27;2.38;;;1.13;;
51724;SDS011;37801;53.224;6.552;2022-08-11T11:05:55;5.47;;;1.30;;
51724;SDS011;37801;53.224;6.552;2022-08-11T11:08:22;3.22;;;1.50;;
51724;SDS011;37801;53.224;6.552;2022-08-11T11:11:09;2.53;;;1.20;;
51724;SDS011;37801;53.224;6.552;2022-08-11T11:13:37;2.17;;;1.17;;
51724;SDS011;37801;53.224;6.552;2022-08-11T11:16:23;3.47;;;1.33;;
51724;SDS011;37801;53.224;6.552;2022-08-11T11:19:08;3.40;;;1.15;;
51724;SDS011;37801;53.224;6.552;2022-08-11T11:21:35;4.68;;;1.33;;
51724;SDS011;37801;53.224;6.552;2022-08-11T11:32:36;2.30;;;1.40;;
51724;SDS011;37801;53.224;6.552;2022-08-11T11:37:33;3.03;;;1.35;;
51724;SDS011;37801;53.224;6.552;2022-08-11T11:40:00;4.18;;;1.25;;
51724;SDS011;37801;53.224;6.552;2022-08-11T11:42:27;3.67;;;1.42;;
51724;SDS011;37801;53.224;6.552;2022-08-11T11:44:54;3.30;;;1.40;;
51724;SDS011;37801;53.224;6.552;2022-08-11T11:47:20;2.92;;;1.60;;
51724;SDS011;37801;53.224;6.552;2022-08-11T11:49:47;1.85;;;1.27;;
51724;SDS011;37801;53.224;6.552;2022-08-11T11:52:14;3.20;;;1.20;;
51724;SDS011;37801;53.224;6.552;2022-08-11T11:54:43;1.75;;;1.23;;
51724;SDS011;37801;53.224;6.552;2022-08-11T11:57:10;2.60;;;1.10;;
51724;SDS011;37801;53.224;6.552;2022-08-11T11:59:56;3.28;;;1.30;;
51724;SDS011;37801;53.224;6.552;2022-08-11T12:02:41;2.75;;;1.20;;
51724;SDS011;37801;53.224;6.552;2022-08-11T12:05:08;4.82;;;1.30;;
51724;SDS011;37801;53.224;6.552;2022-08-11T12:07:35;3.17;;;1.20;;
51724;SDS011;37801;53.224;6.552;2022-08-11T12:10:21;2.42;;;1.20;;
51724;SDS011;37801;53.224;6.552;2022-08-11T12:12:47;5.03;;;1.38;;
51724;SDS011;37801;53.224;6.552;2022-08-11T12:15:33;2.20;;;0.90;;
51724;SDS011;37801;53.224;6.552;2022-08-11T12:17:59;1.27;;;0.85;;
51724;SDS011;37801;53.224;6.552;2022-08-11T12:20:26;3.55;;;1.20;;
51724;SDS011;37801;53.224;6.552;2022-08-11T12:22:53;3.35;;;1.25;;
51724;SDS011;37801;53.224;6.552;2022-08-11T12:25:38;4.10;;;1.45;;
51724;SDS011;37801;53.224;6.552;2022-08-11T12:28:23;2.78;;;1.10;;
51724;SDS011;37801;53.224;6.552;2022-08-11T12:30:50;2.40;;;1.10;;
51724;SDS011;37801;53.224;6.552;2022-08-11T12:33:17;2.88;;;1.08;;
51724;SDS011;37801;53.224;6.552;2022-08-11T12:35:45;3.30;;;0.95;;
51724;SDS011;37801;53.224;6.552;2022-08-11T12:38:12;2.70;;;1.20;;
51724;SDS011;37801;53.224;6.552;2022-08-11T12:40:39;2.70;;;1.10;;
51724;SDS011;37801;53.224;6.552;2022-08-11T12:43:26;1.60;;;0.90;;
51724;SDS011;37801;53.224;6.552;2022-08-11T12:46:13;1.70;;;1.02;;
51724;SDS011;37801;53.224;6.552;2022-08-11T12:48:46;3.05;;;1.10;;
51724;SDS011;37801;53.224;6.552;2022-08-11T12:51:35;3.30;;;1.25;;
51724;SDS011;37801;53.224;6.552;2022-08-11T12:57:02;7.20;;;1.30;;
51724;SDS011;37801;53.224;6.552;2022-08-11T12:59:50;1.90;;;1.15;;
51724;SDS011;37801;53.224;6.552;2022-08-11T13:02:34;2.53;;;1.13;;
51724;SDS011;37801;53.224;6.552;2022-08-11T13:05:20;4.13;;;0.95;;
51724;SDS011;37801;53.224;6.552;2022-08-11T13:07:46;3.47;;;1.10;;
51724;SDS011;37801;53.224;6.552;2022-08-11T13:10:13;1.60;;;1.00;;
51724;SDS011;37801;53.224;6.552;2022-08-11T13:13:01;2.03;;;1.20;;
51724;SDS011;37801;53.224;6.552;2022-08-11T13:15:28;4.03;;;2.20;;
51724;SDS011;37801;53.224;6.552;2022-08-11T13:17:55;3.80;;;1.67;;
51724;SDS011;37801;53.224;6.552;2022-08-11T13:20:22;4.50;;;1.10;;
51724;SDS011;37801;53.224;6.552;2022-08-11T13:22:55;2.50;;;1.10;;
51724;SDS011;37801;53.224;6.552;2022-08-11T13:25:23;2.20;;;1.10;;
51724;SDS011;37801;53.224;6.552;2022-08-11T13:27:50;1.92;;;1.08;;
51724;SDS011;37801;53.224;6.552;2022-08-11T13:30:17;2.25;;;0.95;;
51724;SDS011;37801;53.224;6.552;2022-08-11T13:33:03;2.00;;;1.00;;
51724;SDS011;37801;53.224;6.552;2022-08-11T13:35:31;1.85;;;0.90;;
51724;SDS011;37801;53.224;6.552;2022-08-11T13:38:00;3.95;;;1.30;;
51724;SDS011;37801;53.224;6.552;2022-08-11T13:40:26;2.65;;;1.13;;
51724;SDS011;37801;53.224;6.552;2022-08-11T13:42:54;2.33;;;1.33;;
51724;SDS011;37801;53.224;6.552;2022-08-11T13:45:23;3.67;;;1.02;;
51724;SDS011;37801;53.224;6.552;2022-08-11T13:47:54;2.17;;;1.13;;
51724;SDS011;37801;53.224;6.552;2022-08-11T13:50:21;1.90;;;1.20;;
51724;SDS011;37801;53.224;6.552;2022-08-11T13:53:08;2.78;;;1.00;;
51724;SDS011;37801;53.224;6.552;2022-08-11T13:55:36;3.33;;;1.20;;
51724;SDS011;37801;53.224;6.552;2022-08-11T13:58:03;4.07;;;1.13;;
51724;SDS011;37801;53.224;6.552;2022-08-11T14:00:30;2.50;;;1.00;;
51724;SDS011;37801;53.224;6.552;2022-08-11T14:02:56;1.63;;;0.75;;
51724;SDS011;37801;53.224;6.552;2022-08-11T14:05:27;3.53;;;1.30;;
51724;SDS011;37801;53.224;6.552;2022-08-11T14:08:03;3.95;;;1.17;;
51724;SDS011;37801;53.224;6.552;2022-08-11T14:10:32;3.97;;;1.02;;
51724;SDS011;37801;53.224;6.552;2022-08-11T14:13:00;2.30;;;1.02;;
51724;SDS011;37801;53.224;6.552;2022-08-11T14:15:46;3.67;;;1.23;;
51724;SDS011;37801;53.224;6.552;2022-08-11T14:20:39;1.95;;;0.82;;
51724;SDS011;37801;53.224;6.552;2022-08-11T14:23:26;1.77;;;0.98;;
51724;SDS011;37801;53.224;6.552;2022-08-11T14:25:53;4.30;;;1.23;;
51724;SDS011;37801;53.224;6.552;2022-08-11T14:28:39;2.85;;;1.00;;
51724;SDS011;37801;53.224;6.552;2022-08-11T14:31:07;3.22;;;1.05;;
51724;SDS011;37801;53.224;6.552;2022-08-11T14:33:34;3.03;;;1.10;;
51724;SDS011;37801;53.224;6.552;2022-08-11T14:36:03;2.05;;;1.00;;
51724;SDS011;37801;53.224;6.552;2022-08-11T14:38:32;1.88;;;1.05;;
51724;SDS011;37801;53.224;6.552;2022-08-11T14:41:02;4.63;;;1.23;;
51724;SDS011;37801;53.224;6.552;2022-08-11T14:43:48;5.28;;;1.45;;
51724;SDS011;37801;53.224;6.552;2022-08-11T14:46:33;3.03;;;1.33;;
51724;SDS011;37801;53.224;6.552;2022-08-11T14:49:18;2.70;;;1.30;;
51724;SDS011;37801;53.224;6.552;2022-08-11T14:51:44;2.58;;;1.42;;
51724;SDS011;37801;53.224;6.552;2022-08-11T14:54:12;2.35;;;1.38;;
51724;SDS011;37801;53.224;6.552;2022-08-11T14:56:57;4.72;;;1.08;;
51724;SDS011;37801;53.224;6.552;2022-08-11T14:59:24;3.55;;;1.38;;
51724;SDS011;37801;53.224;6.552;2022-08-11T15:01:50;4.20;;;1.05;;
51724;SDS011;37801;53.224;6.552;2022-08-11T15:04:36;3.40;;;1.20;;
51724;SDS011;37801;53.224;6.552;2022-08-11T15:07:06;4.38;;;1.23;;
51724;SDS011;37801;53.224;6.552;2022-08-11T15:09:34;3.00;;;1.35;;
51724;SDS011;37801;53.224;6.552;2022-08-11T15:12:00;2.25;;;1.27;;
51724;SDS011;37801;53.224;6.552;2022-08-11T15:14:33;2.20;;;1.20;;
51724;SDS011;37801;53.224;6.552;2022-08-11T15:17:18;3.08;;;1.20;;
51724;SDS011;37801;53.224;6.552;2022-08-11T15:19:44;3.13;;;1.30;;
51724;SDS011;37801;53.224;6.552;2022-08-11T15:22:30;3.40;;;1.50;;
51724;SDS011;37801;53.224;6.552;2022-08-11T15:25:15;3.40;;;1.70;;
51724;SDS011;37801;53.224;6.552;2022-08-11T15:27:42;2.78;;;1.40;;
51724;SDS011;37801;53.224;6.552;2022-08-11T15:30:27;3.13;;;1.20;;
51724;SDS011;37801;53.224;6.552;2022-08-11T15:33:13;2.03;;;1.10;;
51724;SDS011;37801;53.224;6.552;2022-08-11T15:35:58;2.85;;;1.30;;
51724;SDS011;37801;53.224;6.552;2022-08-11T15:38:49;7.07;;;1.58;;
51724;SDS011;37801;53.224;6.552;2022-08-11T15:41:16;2.60;;;1.15;;
51724;SDS011;37801;53.224;6.552;2022-08-11T15:44:01;4.40;;;1.58;;
51724;SDS011;37801;53.224;6.552;2022-08-11T15:46:48;2.72;;;1.40;;
51724;SDS011;37801;53.224;6.552;2022-08-11T15:49:22;3.25;;;1.20;;
51724;SDS011;37801;53.224;6.552;2022-08-11T15:51:58;7.65;;;1.50;;
51724;SDS011;37801;53.224;6.552;2022-08-11T15:54:26;2.70;;;1.40;;
51724;SDS011;37801;53.224;6.552;2022-08-11T15:56:55;5.75;;;1.55;;
51724;SDS011;37801;53.224;6.552;2022-08-11T15:59:22;3.83;;;1.40;;
51724;SDS011;37801;53.224;6.552;2022-08-11T16:02:10;5.90;;;1.45;;
51724;SDS011;37801;53.224;6.552;2022-08-11T16:05:00;3.45;;;1.60;;
51724;SDS011;37801;53.224;6.552;2022-08-11T16:07:31;6.30;;;1.42;;
51724;SDS011;37801;53.224;6.552;2022-08-11T16:12:43;2.92;;;1.50;;
51724;SDS011;37801;53.224;6.552;2022-08-11T16:15:50;2.38;;;1.38;;
51724;SDS011;37801;53.224;6.552;2022-08-11T16:18:51;4.95;;;1.40;;
51724;SDS011;37801;53.224;6.552;2022-08-11T16:21:21;2.42;;;1.27;;
51724;SDS011;37801;53.224;6.552;2022-08-11T16:23:49;4.07;;;1.60;;
51724;SDS011;37801;53.224;6.552;2022-08-11T16:26:16;7.78;;;1.30;;
51724;SDS011;37801;53.224;6.552;2022-08-11T16:28:43;2.95;;;1.30;;
51724;SDS011;37801;53.224;6.552;2022-08-11T16:31:11;4.03;;;1.75;;
51724;SDS011;37801;53.224;6.552;2022-08-11T16:33:38;3.45;;;1.40;;
51724;SDS011;37801;53.224;6.552;2022-08-11T16:36:05;2.88;;;1.50;;
51724;SDS011;37801;53.224;6.552;2022-08-11T16:38:51;3.17;;;1.40;;
51724;SDS011;37801;53.224;6.552;2022-08-11T16:41:17;4.55;;;1.40;;
51724;SDS011;37801;53.224;6.552;2022-08-11T16:44:06;2.22;;;1.20;;
51724;SDS011;37801;53.224;6.552;2022-08-11T16:46:53;3.75;;;1.52;;
51724;SDS011;37801;53.224;6.552;2022-08-11T16:49:27;5.43;;;1.85;;
51724;SDS011;37801;53.224;6.552;2022-08-11T16:51:55;4.30;;;1.20;;
51724;SDS011;37801;53.224;6.552;2022-08-11T16:54:21;6.20;;;1.45;;
51724;SDS011;37801;53.224;6.552;2022-08-11T16:56:51;7.72;;;1.67;;
51724;SDS011;37801;53.224;6.552;2022-08-11T16:59:22;4.15;;;1.98;;
51724;SDS011;37801;53.224;6.552;2022-08-11T17:01:56;6.32;;;2.17;;
51724;SDS011;37801;53.224;6.552;2022-08-11T17:07:07;5.38;;;2.05;;
51724;SDS011;37801;53.224;6.552;2022-08-11T17:09:53;3.30;;;1.80;;
51724;SDS011;37801;53.224;6.552;2022-08-11T17:12:39;3.90;;;2.25;;
51724;SDS011;37801;53.224;6.552;2022-08-11T17:15:25;3.95;;;1.70;;
51724;SDS011;37801;53.224;6.552;2022-08-11T17:18:12;6.88;;;2.13;;
51724;SDS011;37801;53.224;6.552;2022-08-11T17:21:02;3.33;;;1.83;;
51724;SDS011;37801;53.224;6.552;2022-08-11T17:23:30;3.40;;;1.80;;
51724;SDS011;37801;53.224;6.552;2022-08-11T17:31:52;3.08;;;1.70;;
51724;SDS011;37801;53.224;6.552;2022-08-11T17:34:37;4.47;;;2.13;;
51724;SDS011;37801;53.224;6.552;2022-08-11T17:37:23;3.97;;;1.88;;
51724;SDS011;37801;53.224;6.552;2022-08-11T17:39:50;5.43;;;2.15;;
51724;SDS011;37801;53.224;6.552;2022-08-11T17:42:17;5.22;;;1.92;;
51724;SDS011;37801;53.224;6.552;2022-08-11T17:45:02;3.33;;;2.08;;
51724;SDS011;37801;53.224;6.552;2022-08-11T17:47:47;4.68;;;1.67;;
51724;SDS011;37801;53.224;6.552;2022-08-11T17:50:32;2.75;;;1.48;;
51724;SDS011;37801;53.224;6.552;2022-08-11T17:52:58;4.15;;;1.75;;
51724;SDS011;37801;53.224;6.552;2022-08-11T17:55:44;3.17;;;1.50;;
51724;SDS011;37801;53.224;6.552;2022-08-11T17:58:29;2.75;;;1.60;;
51724;SDS011;37801;53.224;6.552;2022-08-11T18:01:14;4.38;;;2.15;;
51724;SDS011;37801;53.224;6.552;2022-08-11T18:03:41;5.10;;;1.80;;
51724;SDS011;37801;53.224;6.552;2022-08-11T18:06:09;3.72;;;1.40;;
51724;SDS011;37801;53.224;6.552;2022-08-11T18:08:37;3.05;;;1.50;;
51724;SDS011;37801;53.224;6.552;2022-08-11T18:11:22;2.60;;;1.50;;
51724;SDS011;37801;53.224;6.552;2022-08-11T18:14:08;4.95;;;1.70;;
51724;SDS011;37801;53.224;6.552;2022-08-11T18:16:53;4.75;;;1.55;;
51724;SDS011;37801;53.224;6.552;2022-08-11T18:19:38;2.95;;;1.60;;
51724;SDS011;37801;53.224;6.552;2022-08-11T18:22:23;4.40;;;1.80;;
51724;SDS011;37801;53.224;6.552;2022-08-11T18:25:11;6.57;;;1.52;;
51724;SDS011;37801;53.224;6.552;2022-08-11T18:27:57;2.50;;;1.38;;
51724;SDS011;37801;53.224;6.552;2022-08-11T18:30:43;3.08;;;1.50;;
51724;SDS011;37801;53.224;6.552;2022-08-11T18:33:29;9.80;;;1.73;;
51724;SDS011;37801;53.224;6.552;2022-08-11T18:36:19;3.47;;;1.25;;
51724;SDS011;37801;53.224;6.552;2022-08-11T18:39:05;3.95;;;1.70;;
51724;SDS011;37801;53.224;6.552;2022-08-11T18:41:50;4.55;;;1.52;;
51724;SDS011;37801;53.224;6.552;2022-08-11T18:44:36;3.25;;;1.70;;
51724;SDS011;37801;53.224;6.552;2022-08-11T18:47:21;7.18;;;1.80;;
51724;SDS011;37801;53.224;6.552;2022-08-11T18:50:07;3.47;;;1.40;;
51724;SDS011;37801;53.224;6.552;2022-08-11T18:52:53;3.58;;;1.75;;
51724;SDS011;37801;53.224;6.552;2022-08-11T18:55:39;4.32;;;1.60;;
51724;SDS011;37801;53.224;6.552;2022-08-11T18:58:26;4.10;;;1.63;;
51724;SDS011;37801;53.224;6.552;2022-08-11T19:01:12;2.65;;;1.35;;
51724;SDS011;37801;53.224;6.552;2022-08-11T19:03:58;3.65;;;1.52;;
51724;SDS011;37801;53.224;6.552;2022-08-11T19:06:44;2.55;;;1.40;;
51724;SDS011;37801;53.224;6.552;2022-08-11T19:09:29;3.28;;;1.50;;
51724;SDS011;37801;53.224;6.552;2022-08-11T19:12:14;5.63;;;1.73;;
51724;SDS011;37801;53.224;6.552;2022-08-11T19:15:00;2.75;;;1.48;;
51724;SDS011;37801;53.224;6.552;2022-08-11T19:17:45;4.57;;;1.40;;
51724;SDS011;37801;53.224;6.552;2022-08-11T19:20:31;4.53;;;1.73;;
51724;SDS011;37801;53.224;6.552;2022-08-11T19:23:24;3.45;;;1.60;;
51724;SDS011;37801;53.224;6.552;2022-08-11T19:26:09;3.65;;;1.95;;